createdAt,value
2019-02-27T00:01:16.750Z,1.30
2019-02-27T00:03:44.761Z,1.10
2019-02-27T00:06:15.873Z,1.10
2019-02-27T00:08:45.546Z,1.10
2019-02-27T00:11:14.963Z,1.10
2019-02-27T00:13:44.384Z,1.10
2019-02-27T00:16:13.832Z,1.00
2019-02-27T00:18:43.253Z,1.00
2019-02-27T00:21:12.720Z,1.10
2019-02-27T00:23:42.126Z,1.00
2019-02-27T00:26:11.571Z,0.90
2019-02-27T00:28:40.974Z,0.80
2019-02-27T00:31:11.473Z,0.80
2019-02-27T00:33:41.636Z,0.70
2019-02-27T00:36:12.298Z,0.70
2019-02-27T00:38:42.240Z,0.60
2019-02-27T00:41:12.858Z,0.50
2019-02-27T00:43:42.452Z,0.40
2019-02-27T00:46:13.410Z,0.40
2019-02-27T00:48:43.035Z,0.40
2019-02-27T00:51:12.930Z,0.30
2019-02-27T00:53:42.534Z,0.20
2019-02-27T00:56:12.754Z,0.10
2019-02-27T00:58:42.490Z,0.10
2019-02-27T01:01:12.766Z,-0.10
2019-02-27T01:03:42.783Z,0.00
2019-02-27T01:06:14.762Z,-0.10
2019-02-27T01:08:43.709Z,-0.10
2019-02-27T01:11:13.189Z,-0.10
2019-02-27T01:13:42.635Z,-0.30
2019-02-27T01:16:12.065Z,-0.30
2019-02-27T01:18:41.618Z,-0.30
2019-02-27T01:21:11.084Z,-0.40
2019-02-27T01:23:43.703Z,-0.50
2019-02-27T01:26:11.696Z,-0.60
2019-02-27T01:28:44.646Z,-0.70
2019-02-27T01:31:12.313Z,-0.80
2019-02-27T01:33:41.785Z,-0.70
2019-02-27T01:36:11.282Z,-0.60
2019-02-27T01:38:40.691Z,-0.70
2019-02-27T01:41:10.133Z,-0.80
2019-02-27T01:43:39.933Z,-0.70
2019-02-27T01:46:10.293Z,-0.80
2019-02-27T01:48:42.688Z,-0.70
2019-02-27T01:51:10.879Z,-0.70
2019-02-27T01:53:40.677Z,-0.80
2019-02-27T01:56:10.758Z,-0.90
2019-02-27T01:58:43.474Z,-1.00
2019-02-27T02:01:11.455Z,-1.00
2019-02-27T02:03:40.941Z,-1.10
2019-02-27T02:06:10.581Z,-1.10
2019-02-27T02:08:40.219Z,-1.10
2019-02-27T02:11:09.885Z,-1.20
2019-02-27T02:14:23.071Z,-1.20
2019-02-27T02:17:09.954Z,-1.30
2019-02-27T02:20:14.860Z,-1.30
2019-02-27T02:23:24.078Z,-1.30
2019-02-27T02:26:19.079Z,-1.30
2019-02-27T02:29:31.450Z,-1.40
2019-02-27T02:32:52.073Z,-1.30
2019-02-27T02:35:30.913Z,-1.50
2019-02-27T02:38:14.204Z,-1.50
2019-02-27T02:41:46.704Z,-1.40
2019-02-27T02:44:57.636Z,-1.40
2019-02-27T02:47:49.273Z,-1.40
2019-02-27T02:50:44.857Z,-1.40
2019-02-27T02:53:49.400Z,-1.40
2019-02-27T02:57:00.199Z,-1.40
2019-02-27T03:00:03.508Z,-1.40
2019-02-27T03:02:57.616Z,-1.30
2019-02-27T03:05:59.736Z,-1.40
2019-02-27T03:08:57.312Z,-1.30
2019-02-27T03:11:54.035Z,-1.20
2019-02-27T03:14:54.210Z,-1.20
2019-02-27T03:17:54.765Z,-1.30
2019-02-27T03:21:04.967Z,-1.40
2019-02-27T03:24:28.948Z,-1.30
2019-02-27T03:27:33.006Z,-1.30
2019-02-27T03:30:36.274Z,-1.20
2019-02-27T03:33:32.008Z,-1.40
2019-02-27T03:36:35.970Z,-1.30
2019-02-27T03:40:11.093Z,-1.40
2019-02-27T03:43:21.585Z,-1.50
2019-02-27T03:46:43.674Z,-1.40
2019-02-27T03:49:40.950Z,-1.20
2019-02-27T03:52:45.809Z,-1.30
2019-02-27T03:55:50.962Z,-1.50
2019-02-27T03:58:50.865Z,-1.40
2019-02-27T04:01:35.024Z,-1.50
2019-02-27T04:04:43.508Z,-1.50
2019-02-27T04:07:48.120Z,-1.60
2019-02-27T04:10:17.563Z,-1.70
2019-02-27T04:12:51.393Z,-1.70
2019-02-27T04:15:18.941Z,-1.70
2019-02-27T04:17:51.840Z,-1.80
2019-02-27T04:20:18.426Z,-1.90
2019-02-27T04:22:47.856Z,-1.90
2019-02-27T04:25:17.358Z,-1.80
2019-02-27T04:27:46.749Z,-1.90
2019-02-27T04:30:17.448Z,-1.90
2019-02-27T04:32:48.809Z,-2.00
2019-02-27T04:35:17.996Z,-2.00
2019-02-27T04:37:47.453Z,-2.00
2019-02-27T04:40:16.944Z,-2.00
2019-02-27T04:42:46.434Z,-2.10
2019-02-27T04:45:15.908Z,-2.20
2019-02-27T04:47:45.404Z,-2.20
2019-02-27T04:50:14.986Z,-2.10
2019-02-27T04:52:44.408Z,-2.10
2019-02-27T04:55:15.750Z,-2.10
2019-02-27T04:57:45.010Z,-2.20
2019-02-27T05:00:14.707Z,-2.30
2019-02-27T05:02:44.389Z,-2.20
2019-02-27T05:05:13.882Z,-2.10
2019-02-27T05:07:43.453Z,-1.90
2019-02-27T05:10:12.881Z,-1.90
2019-02-27T05:12:42.409Z,-1.70
2019-02-27T05:15:11.879Z,-1.70
2019-02-27T05:17:41.463Z,-1.60
2019-02-27T05:20:12.423Z,-1.60
2019-02-27T05:22:42.227Z,-1.60
2019-02-27T05:25:12.054Z,-1.70
2019-02-27T05:27:43.002Z,-1.80
2019-02-27T05:30:12.875Z,-1.80
2019-02-27T05:32:42.459Z,-1.80
2019-02-27T05:35:11.918Z,-1.70
2019-02-27T05:37:41.394Z,-1.70
2019-02-27T05:40:11.011Z,-1.60
2019-02-27T05:42:40.486Z,-1.60
2019-02-27T05:45:11.523Z,-1.60
2019-02-27T05:47:44.688Z,-1.60
2019-02-27T05:50:12.770Z,-1.60
2019-02-27T05:52:42.451Z,-1.50
2019-02-27T05:55:12.010Z,-1.50
2019-02-27T05:57:41.543Z,-1.50
2019-02-27T06:00:14.470Z,-1.30
2019-02-27T06:02:44.992Z,-1.10
2019-02-27T06:05:15.630Z,-1.00
2019-02-27T06:07:45.522Z,-0.90
2019-02-27T06:10:19.770Z,-0.80
2019-02-27T06:12:46.425Z,-0.70
2019-02-27T06:15:17.555Z,-0.50
2019-02-27T06:17:49.070Z,-0.40
2019-02-27T06:20:18.572Z,-0.20
2019-02-27T06:22:48.184Z,0.20
2019-02-27T06:25:22.302Z,0.50
2019-02-27T06:27:49.473Z,0.90
2019-02-27T06:30:19.548Z,1.30
2019-02-27T06:32:49.033Z,1.70
2019-02-27T06:35:18.735Z,1.90
2019-02-27T06:37:50.648Z,2.40
2019-02-27T06:40:19.434Z,2.40
2019-02-27T06:42:53.384Z,2.80
2019-02-27T06:45:20.390Z,2.70
2019-02-27T06:47:49.968Z,3.00
2019-02-27T06:50:19.540Z,3.20
2019-02-27T06:52:49.170Z,3.30
2019-02-27T06:55:18.594Z,2.90
2019-02-27T06:57:48.151Z,2.80
2019-02-27T07:00:18.946Z,3.00
2019-02-27T07:02:48.554Z,3.10
2019-02-27T07:05:18.316Z,3.50
2019-02-27T07:07:47.762Z,3.90
2019-02-27T07:10:19.430Z,4.20
2019-02-27T07:12:48.494Z,4.60
2019-02-27T07:15:18.416Z,4.30
2019-02-27T07:17:48.088Z,4.50
2019-02-27T07:20:17.688Z,5.10
2019-02-27T07:22:47.218Z,5.20
2019-02-27T07:25:16.923Z,5.70
2019-02-27T07:27:46.489Z,6.10
2019-02-27T07:30:17.172Z,6.10
2019-02-27T07:32:46.680Z,6.80
2019-02-27T07:35:16.622Z,6.80
2019-02-27T07:37:48.059Z,6.30
2019-02-27T07:40:17.212Z,6.30
2019-02-27T07:42:46.676Z,6.10
2019-02-27T07:45:17.456Z,6.40
2019-02-27T07:47:46.949Z,7.20
2019-02-27T07:50:16.889Z,7.70
2019-02-27T07:52:46.296Z,6.80
2019-02-27T07:55:21.916Z,7.80
2019-02-27T07:57:47.480Z,7.50
2019-02-27T08:00:19.975Z,8.80
2019-02-27T08:02:49.540Z,8.70
2019-02-27T08:05:19.124Z,8.80
2019-02-27T08:07:49.727Z,8.60
2019-02-27T08:10:19.851Z,9.30
2019-02-27T08:12:49.276Z,9.10
2019-02-27T08:17:48.134Z,9.60
2019-02-27T08:20:20.226Z,8.70
2019-02-27T08:22:49.726Z,8.90
2019-02-27T08:25:19.491Z,9.20
2019-02-27T08:27:48.977Z,9.70
2019-02-27T08:32:48.471Z,11.00
2019-02-27T08:35:17.921Z,10.60
2019-02-27T08:37:47.626Z,10.50
2019-02-27T08:40:17.100Z,10.50
2019-02-27T08:42:46.554Z,10.60
2019-02-27T08:45:19.770Z,11.00
2019-02-27T08:47:47.499Z,11.40
2019-02-27T08:50:17.074Z,12.20
2019-02-27T08:52:50.470Z,10.50
2019-02-27T08:55:21.787Z,9.30
2019-02-27T08:57:50.018Z,9.20
2019-02-27T09:00:23.160Z,9.40
2019-02-27T09:02:52.762Z,10.20
2019-02-27T09:05:22.176Z,9.30
2019-02-27T09:07:51.593Z,10.20
2019-02-27T09:10:23.248Z,9.80
2019-02-27T09:12:52.406Z,10.20
2019-02-27T09:15:21.925Z,10.20
2019-02-27T09:17:51.417Z,9.50
2019-02-27T09:20:21.075Z,9.30
2019-02-27T09:22:50.742Z,8.40
2019-02-27T09:25:23.790Z,8.40
2019-02-27T09:27:51.953Z,8.50
2019-02-27T09:30:21.402Z,9.20
2019-02-27T09:32:51.094Z,9.90
2019-02-27T09:35:20.624Z,10.50
2019-02-27T09:37:51.188Z,10.20
2019-02-27T09:40:21.622Z,9.60
2019-02-27T09:42:53.038Z,10.60
2019-02-27T09:45:30.045Z,11.60
2019-02-27T09:48:00.623Z,11.00
2019-02-27T09:50:47.593Z,11.60
2019-02-27T09:55:44.358Z,14.10
2019-02-27T09:58:13.907Z,15.00
2019-02-27T10:00:48.695Z,15.90
2019-02-27T10:03:21.203Z,13.80
2019-02-27T10:05:49.395Z,13.80
2019-02-27T10:08:19.061Z,13.10
2019-02-27T10:10:48.596Z,11.60
2019-02-27T10:13:18.116Z,11.20
2019-02-27T10:15:47.788Z,10.10
2019-02-27T10:18:19.043Z,10.60
2019-02-27T10:20:48.400Z,9.70
2019-02-27T10:23:17.897Z,9.70
2019-02-27T10:25:47.560Z,10.20
2019-02-27T10:28:17.226Z,10.70
2019-02-27T10:30:50.061Z,10.80
2019-02-27T10:33:18.589Z,10.70
2019-02-27T10:35:48.689Z,10.50
2019-02-27T10:38:18.151Z,10.60
2019-02-27T10:40:47.999Z,9.90
2019-02-27T10:43:17.494Z,9.60
2019-02-27T10:45:49.322Z,9.80
2019-02-27T10:48:18.341Z,10.30
2019-02-27T10:50:47.780Z,10.50
2019-02-27T10:53:17.262Z,10.40
2019-02-27T10:55:49.189Z,10.60
2019-02-27T10:58:18.172Z,10.10
2019-02-27T11:00:48.729Z,11.30
2019-02-27T11:03:18.200Z,11.10
2019-02-27T11:05:52.381Z,10.10
2019-02-27T11:08:19.151Z,9.90
2019-02-27T11:10:48.606Z,10.00
2019-02-27T11:13:18.367Z,10.60
2019-02-27T11:15:47.837Z,9.80
2019-02-27T11:18:17.263Z,11.40
2019-02-27T11:20:46.746Z,12.80
2019-02-27T11:23:16.361Z,13.70
2019-02-27T11:25:45.775Z,13.90
2019-02-27T11:28:15.510Z,13.30
2019-02-27T11:30:44.961Z,13.50
2019-02-27T11:33:25.279Z,13.30
2019-02-27T11:35:45.994Z,13.60
2019-02-27T11:38:15.589Z,14.80
2019-02-27T11:40:45.123Z,14.20
2019-02-27T11:43:14.949Z,14.00
2019-02-27T11:45:44.509Z,12.40
2019-02-27T11:48:14.470Z,13.70
2019-02-27T11:50:43.874Z,14.10
2019-02-27T11:53:13.333Z,13.60
2019-02-27T11:55:42.837Z,13.00
2019-02-27T11:58:12.336Z,12.70
2019-02-27T12:00:41.773Z,13.80
2019-02-27T12:03:12.005Z,13.20
2019-02-27T12:05:41.849Z,13.30
2019-02-27T12:10:41.207Z,14.60
2019-02-27T12:13:10.719Z,15.50
2019-02-27T12:15:43.390Z,13.80
2019-02-27T12:18:11.335Z,14.80
2019-02-27T12:20:41.097Z,14.90
2019-02-27T12:23:10.827Z,16.20
2019-02-27T12:25:40.643Z,17.20
2019-02-27T12:28:10.353Z,16.50
2019-02-27T12:30:39.971Z,14.90
2019-02-27T12:33:09.439Z,15.00
2019-02-27T12:35:38.913Z,17.70
2019-02-27T12:38:08.625Z,18.00
2019-02-27T12:40:38.041Z,17.90
2019-02-27T12:43:07.665Z,17.90
2019-02-27T12:45:37.164Z,16.20
2019-02-27T12:48:06.622Z,17.20
2019-02-27T12:50:36.134Z,17.50
2019-02-27T12:53:06.219Z,18.10
2019-02-27T12:55:36.473Z,19.00
2019-02-27T12:58:06.142Z,18.60
2019-02-27T13:00:35.925Z,17.10
2019-02-27T13:03:08.437Z,16.00
2019-02-27T13:05:36.889Z,15.00
2019-02-27T13:08:06.375Z,13.40
2019-02-27T13:10:35.926Z,15.70
2019-02-27T13:13:05.400Z,16.90
2019-02-27T13:15:34.907Z,19.30
2019-02-27T13:18:04.417Z,17.20
2019-02-27T13:20:34.144Z,15.20
2019-02-27T13:23:05.071Z,16.00
2019-02-27T13:25:34.678Z,16.00
2019-02-27T13:28:04.258Z,14.90
2019-02-27T13:30:34.383Z,15.70
2019-02-27T13:33:04.012Z,14.10
2019-02-27T13:35:33.568Z,14.80
2019-02-27T13:38:03.058Z,15.70
2019-02-27T13:40:35.665Z,16.10
2019-02-27T13:43:04.231Z,15.50
2019-02-27T13:45:33.711Z,15.30
2019-02-27T13:48:05.858Z,17.20
2019-02-27T13:50:34.519Z,17.40
2019-02-27T13:53:04.131Z,17.10
2019-02-27T13:55:33.751Z,17.00
2019-02-27T13:58:03.742Z,15.00
2019-02-27T14:00:33.581Z,14.50
2019-02-27T14:03:03.084Z,13.20
2019-02-27T14:05:35.970Z,12.40
2019-02-27T14:08:04.059Z,12.00
2019-02-27T14:10:33.719Z,12.00
2019-02-27T14:13:03.309Z,12.10
2019-02-27T14:15:32.793Z,12.10
2019-02-27T14:18:02.341Z,12.30
2019-02-27T14:20:31.882Z,11.90
2019-02-27T14:23:01.464Z,11.10
2019-02-27T14:25:32.893Z,11.70
2019-02-27T14:28:02.198Z,12.00
2019-02-27T14:30:39.926Z,12.30
2019-02-27T14:33:11.020Z,11.60
2019-02-27T14:35:40.558Z,11.50
2019-02-27T14:38:10.230Z,11.70
2019-02-27T14:40:41.172Z,11.90
2019-02-27T14:43:10.901Z,11.80
2019-02-27T14:45:41.055Z,11.60
2019-02-27T14:48:10.614Z,11.40
2019-02-27T14:50:40.141Z,12.70
2019-02-27T14:53:09.570Z,11.50
2019-02-27T14:55:39.001Z,11.20
2019-02-27T14:58:08.636Z,11.00
2019-02-27T15:00:41.019Z,10.60
2019-02-27T15:03:09.547Z,10.60
2019-02-27T15:05:43.196Z,10.40
2019-02-27T15:08:10.622Z,10.50
2019-02-27T15:10:41.244Z,10.40
2019-02-27T15:13:10.820Z,10.30
2019-02-27T15:15:43.175Z,10.20
2019-02-27T15:18:11.550Z,10.10
2019-02-27T15:20:41.294Z,10.20
2019-02-27T15:23:10.976Z,10.20
2019-02-27T15:25:43.198Z,10.00
2019-02-27T15:28:11.983Z,10.00
2019-02-27T15:30:46.287Z,10.00
2019-02-27T15:33:12.731Z,10.00
2019-02-27T15:35:42.151Z,10.00
2019-02-27T15:38:12.446Z,10.00
2019-02-27T15:40:42.103Z,10.00
2019-02-27T15:43:14.533Z,10.10
2019-02-27T15:45:47.895Z,10.00
2019-02-27T15:48:14.298Z,10.00
2019-02-27T15:50:43.900Z,10.00
2019-02-27T15:53:15.003Z,10.00
2019-02-27T15:55:44.480Z,9.90
2019-02-27T15:58:13.953Z,9.90
2019-02-27T16:00:44.084Z,9.80
2019-02-27T16:03:13.517Z,9.70
2019-02-27T16:05:43.096Z,9.70
2019-02-27T16:08:12.538Z,9.50
2019-02-27T16:10:43.799Z,9.50
2019-02-27T16:13:13.520Z,9.30
2019-02-27T16:15:44.694Z,9.40
2019-02-27T16:18:14.384Z,9.30
2019-02-27T16:20:43.941Z,9.10
2019-02-27T16:23:13.481Z,9.10
2019-02-27T16:25:42.984Z,9.00
2019-02-27T16:28:16.394Z,9.00
2019-02-27T16:30:43.652Z,8.90
2019-02-27T16:33:13.200Z,8.80
2019-02-27T16:35:43.061Z,8.70
2019-02-27T16:38:13.270Z,8.70
2019-02-27T16:40:42.959Z,8.50
2019-02-27T16:43:13.558Z,8.50
2019-02-27T16:45:43.481Z,8.50
2019-02-27T16:48:13.009Z,8.40
2019-02-27T16:50:42.610Z,8.30
2019-02-27T16:53:15.675Z,8.20
2019-02-27T16:55:43.164Z,8.30
2019-02-27T16:58:12.648Z,8.30
2019-02-27T17:00:42.206Z,8.40
2019-02-27T17:03:13.467Z,8.30
2019-02-27T17:05:43.832Z,8.30
2019-02-27T17:08:13.493Z,8.20
2019-02-27T17:10:42.934Z,8.10
2019-02-27T17:13:15.434Z,8.10
2019-02-27T17:15:43.637Z,8.00
2019-02-27T17:18:13.010Z,8.00
2019-02-27T17:20:45.916Z,8.00
2019-02-27T17:23:13.628Z,8.00
2019-02-27T17:25:43.228Z,8.00
2019-02-27T17:28:12.807Z,8.00
2019-02-27T17:30:42.433Z,8.00
2019-02-27T17:33:11.927Z,7.90
2019-02-27T17:35:41.448Z,7.80
2019-02-27T17:38:13.704Z,7.80
2019-02-27T17:40:42.154Z,7.80
2019-02-27T17:43:11.600Z,7.80
2019-02-27T17:45:44.269Z,7.90
2019-02-27T17:48:13.284Z,7.80
2019-02-27T17:50:42.803Z,7.60
2019-02-27T17:53:12.232Z,7.60
2019-02-27T17:55:42.607Z,7.60
2019-02-27T17:58:12.078Z,7.60
2019-02-27T18:00:42.803Z,7.60
2019-02-27T18:03:12.287Z,7.60
2019-02-27T18:05:41.780Z,7.40
2019-02-27T18:08:15.990Z,7.50
2019-02-27T18:10:42.379Z,7.40
2019-02-27T18:13:11.804Z,7.40
2019-02-27T18:15:41.302Z,7.40
2019-02-27T18:18:10.778Z,7.40
2019-02-27T18:20:40.162Z,7.40
2019-02-27T18:23:09.694Z,7.30
2019-02-27T18:25:42.194Z,7.30
2019-02-27T18:28:10.804Z,7.30
2019-02-27T18:30:40.195Z,7.20
2019-02-27T18:33:13.627Z,7.30
2019-02-27T18:35:40.887Z,7.30
2019-02-27T18:38:10.312Z,7.20
2019-02-27T18:40:42.680Z,7.20
2019-02-27T18:43:10.900Z,7.20
2019-02-27T18:45:40.379Z,7.20
2019-02-27T18:48:10.090Z,7.00
2019-02-27T18:50:40.072Z,7.00
2019-02-27T18:53:13.053Z,7.10
2019-02-27T18:55:40.792Z,7.00
2019-02-27T18:58:10.190Z,6.90
2019-02-27T19:00:39.660Z,6.90
2019-02-27T19:03:09.120Z,6.90
2019-02-27T19:05:41.751Z,7.00
2019-02-27T19:08:09.692Z,6.70
2019-02-27T19:10:42.448Z,6.70
2019-02-27T19:13:11.016Z,6.70
2019-02-27T19:15:45.499Z,6.90
2019-02-27T19:18:11.761Z,6.80
2019-02-27T19:20:41.908Z,6.80
2019-02-27T19:23:11.352Z,6.70
2019-02-27T19:25:40.898Z,6.70
2019-02-27T19:28:10.887Z,6.70
2019-02-27T19:30:41.790Z,6.70
2019-02-27T19:33:11.790Z,6.70
2019-02-27T19:35:41.304Z,6.60
2019-02-27T19:38:12.885Z,6.60
2019-02-27T19:40:41.928Z,6.60
2019-02-27T19:43:11.561Z,6.60
2019-02-27T19:45:42.316Z,6.70
2019-02-27T19:48:12.021Z,6.60
2019-02-27T19:50:45.315Z,6.60
2019-02-27T19:53:12.641Z,6.80
2019-02-27T19:55:42.217Z,6.70
2019-02-27T19:58:17.120Z,6.70
2019-02-27T20:00:48.299Z,6.60
2019-02-27T20:03:14.095Z,6.70
2019-02-27T20:05:43.523Z,6.70
2019-02-27T20:08:12.998Z,6.70
2019-02-27T20:10:44.098Z,6.70
2019-02-27T20:13:13.727Z,6.70
2019-02-27T20:15:45.588Z,6.90
2019-02-27T20:18:14.488Z,6.80
2019-02-27T20:20:44.213Z,6.90
2019-02-27T20:23:13.862Z,7.00
2019-02-27T20:25:44.410Z,7.10
2019-02-27T20:28:13.952Z,7.10
2019-02-27T20:30:43.459Z,7.00
2019-02-27T20:33:13.043Z,7.00
2019-02-27T20:35:42.532Z,7.10
2019-02-27T20:38:15.799Z,7.00
2019-02-27T20:40:43.793Z,6.80
2019-02-27T20:43:13.224Z,7.10
2019-02-27T20:45:43.537Z,7.10
2019-02-27T20:48:13.049Z,7.30
2019-02-27T20:50:43.578Z,7.20
2019-02-27T20:53:13.123Z,7.20
2019-02-27T20:55:42.659Z,7.20
2019-02-27T20:58:16.367Z,7.10
2019-02-27T21:00:43.302Z,7.20
2019-02-27T21:03:12.752Z,7.20
2019-02-27T21:05:42.584Z,7.30
2019-02-27T21:08:12.077Z,7.10
2019-02-27T21:10:41.506Z,7.10
2019-02-27T21:13:15.678Z,7.30
2019-02-27T21:15:42.094Z,7.30
2019-02-27T21:18:11.563Z,7.10
2019-02-27T21:20:42.188Z,7.20
2019-02-27T21:23:12.308Z,7.30
2019-02-27T21:25:42.036Z,7.20
2019-02-27T21:28:20.484Z,7.30
2019-02-27T21:30:42.584Z,7.20
2019-02-27T21:33:12.101Z,7.00
2019-02-27T21:35:41.529Z,7.00
2019-02-27T21:38:11.007Z,6.90
2019-02-27T21:40:40.652Z,7.00
2019-02-27T21:43:10.196Z,7.00
2019-02-27T21:45:39.686Z,7.10
2019-02-27T21:48:09.162Z,7.10
2019-02-27T21:50:39.870Z,7.00
2019-02-27T21:53:09.737Z,7.00
2019-02-27T21:55:39.484Z,6.80
2019-02-27T21:58:19.755Z,6.80
2019-02-27T22:00:40.072Z,6.80
2019-02-27T22:03:09.513Z,6.70
2019-02-27T22:05:42.782Z,6.60
2019-02-27T22:08:10.117Z,6.70
2019-02-27T22:10:39.535Z,6.70
2019-02-27T22:13:10.499Z,6.60
2019-02-27T22:15:40.074Z,6.60
2019-02-27T22:18:11.807Z,6.50
2019-02-27T22:20:40.614Z,6.50
2019-02-27T22:23:12.632Z,6.50
2019-02-27T22:25:41.175Z,6.40
2019-02-27T22:28:10.618Z,6.30
2019-02-27T22:30:40.108Z,6.10
2019-02-27T22:33:09.565Z,6.10
2019-02-27T22:35:38.991Z,6.10
2019-02-27T22:38:08.530Z,6.00
2019-02-27T22:40:39.083Z,5.90
2019-02-27T22:43:08.644Z,6.10
2019-02-27T22:45:41.999Z,6.00
2019-02-27T22:48:09.423Z,6.00
2019-02-27T22:50:41.237Z,5.90
2019-02-27T22:53:10.070Z,5.80
2019-02-27T22:55:42.279Z,5.80
2019-02-27T22:58:10.608Z,5.90
2019-02-27T23:01:10.248Z,5.90
2019-02-27T23:03:43.010Z,5.70
2019-02-27T23:06:13.030Z,5.80
2019-02-27T23:08:42.915Z,5.80
2019-02-27T23:11:12.464Z,5.80
2019-02-27T23:13:47.441Z,5.70
2019-02-27T23:16:16.834Z,5.80
2019-02-27T23:18:46.590Z,5.80
2019-02-27T23:21:16.017Z,5.70
2019-02-27T23:23:45.453Z,5.60
2019-02-27T23:26:19.889Z,5.60
2019-02-27T23:28:45.958Z,5.40
2019-02-27T23:31:15.424Z,5.60
2019-02-27T23:33:44.864Z,5.60
2019-02-27T23:36:14.361Z,5.60
2019-02-27T23:38:43.800Z,5.60
2019-02-27T23:41:13.282Z,5.60
2019-02-27T23:43:42.688Z,5.60
2019-02-27T23:46:12.112Z,5.70
2019-02-27T23:48:41.565Z,5.70
2019-02-27T23:51:15.818Z,5.60
2019-02-27T23:53:42.099Z,5.40
2019-02-27T23:56:11.584Z,5.40
2019-02-27T23:58:41.012Z,5.50
